sensor_id;sensor_type;location;lat;lon;timestamp;P1;durP1;ratioP1;P2;durP2;ratioP2
13040;SDS011;6587;42.728;23.288;2023-02-17T00:01:36;177.43;;;77.73;;
13040;SDS011;6587;42.728;23.288;2023-02-17T00:04:03;168.23;;;74.93;;
13040;SDS011;6587;42.728;23.288;2023-02-17T00:06:30;121.53;;;52.67;;
13040;SDS011;6587;42.728;23.288;2023-02-17T00:08:57;84.50;;;40.27;;
13040;SDS011;6587;42.728;23.288;2023-02-17T00:11:26;76.17;;;35.80;;
13040;SDS011;6587;42.728;23.288;2023-02-17T00:13:56;83.00;;;39.17;;
13040;SDS011;6587;42.728;23.288;2023-02-17T00:16:24;84.00;;;40.07;;
13040;SDS011;6587;42.728;23.288;2023-02-17T00:18:55;66.40;;;33.93;;
13040;SDS011;6587;42.728;23.288;2023-02-17T00:21:24;68.33;;;32.17;;
13040;SDS011;6587;42.728;23.288;2023-02-17T00:23:52;53.33;;;26.73;;
13040;SDS011;6587;42.728;23.288;2023-02-17T00:26:20;50.67;;;22.73;;
13040;SDS011;6587;42.728;23.288;2023-02-17T00:28:47;60.97;;;28.77;;
13040;SDS011;6587;42.728;23.288;2023-02-17T00:31:15;57.30;;;28.50;;
13040;SDS011;6587;42.728;23.288;2023-02-17T00:33:44;61.50;;;30.50;;
13040;SDS011;6587;42.728;23.288;2023-02-17T00:36:14;55.17;;;27.53;;
13040;SDS011;6587;42.728;23.288;2023-02-17T00:38:43;63.73;;;31.43;;
13040;SDS011;6587;42.728;23.288;2023-02-17T00:41:10;65.77;;;30.73;;
13040;SDS011;6587;42.728;23.288;2023-02-17T00:43:37;66.53;;;31.87;;
13040;SDS011;6587;42.728;23.288;2023-02-17T00:46:05;55.73;;;28.90;;
13040;SDS011;6587;42.728;23.288;2023-02-17T00:48:32;71.43;;;34.03;;
13040;SDS011;6587;42.728;23.288;2023-02-17T00:50:59;85.27;;;39.17;;
13040;SDS011;6587;42.728;23.288;2023-02-17T00:53:27;79.67;;;39.23;;
13040;SDS011;6587;42.728;23.288;2023-02-17T00:55:54;87.70;;;40.57;;
13040;SDS011;6587;42.728;23.288;2023-02-17T00:58:21;85.73;;;42.13;;
13040;SDS011;6587;42.728;23.288;2023-02-17T01:00:49;100.80;;;43.93;;
13040;SDS011;6587;42.728;23.288;2023-02-17T01:03:16;65.80;;;31.30;;
13040;SDS011;6587;42.728;23.288;2023-02-17T01:05:45;102.93;;;46.23;;
13040;SDS011;6587;42.728;23.288;2023-02-17T01:08:13;91.40;;;44.80;;
13040;SDS011;6587;42.728;23.288;2023-02-17T01:10:44;113.33;;;50.23;;
13040;SDS011;6587;42.728;23.288;2023-02-17T01:13:12;112.67;;;49.63;;
13040;SDS011;6587;42.728;23.288;2023-02-17T01:15:40;108.70;;;49.13;;
13040;SDS011;6587;42.728;23.288;2023-02-17T01:18:11;124.50;;;54.97;;
13040;SDS011;6587;42.728;23.288;2023-02-17T01:20:38;170.17;;;63.07;;
13040;SDS011;6587;42.728;23.288;2023-02-17T01:23:06;153.60;;;62.63;;
13040;SDS011;6587;42.728;23.288;2023-02-17T01:25:35;162.97;;;61.40;;
13040;SDS011;6587;42.728;23.288;2023-02-17T01:28:04;143.23;;;60.10;;
13040;SDS011;6587;42.728;23.288;2023-02-17T01:30:33;117.57;;;52.50;;
13040;SDS011;6587;42.728;23.288;2023-02-17T01:33:00;118.73;;;51.10;;
13040;SDS011;6587;42.728;23.288;2023-02-17T01:35:27;125.40;;;52.93;;
13040;SDS011;6587;42.728;23.288;2023-02-17T01:37:54;88.07;;;37.33;;
13040;SDS011;6587;42.728;23.288;2023-02-17T01:40:22;91.13;;;40.10;;
13040;SDS011;6587;42.728;23.288;2023-02-17T01:42:49;97.60;;;42.67;;
13040;SDS011;6587;42.728;23.288;2023-02-17T01:45:38;89.10;;;38.27;;
13040;SDS011;6587;42.728;23.288;2023-02-17T01:48:11;77.30;;;36.57;;
13040;SDS011;6587;42.728;23.288;2023-02-17T01:50:43;53.83;;;25.83;;
13040;SDS011;6587;42.728;23.288;2023-02-17T01:53:15;77.83;;;36.53;;
13040;SDS011;6587;42.728;23.288;2023-02-17T01:55:46;67.70;;;33.10;;
13040;SDS011;6587;42.728;23.288;2023-02-17T01:58:14;110.10;;;50.27;;
13040;SDS011;6587;42.728;23.288;2023-02-17T02:00:46;118.03;;;51.67;;
13040;SDS011;6587;42.728;23.288;2023-02-17T02:03:15;89.50;;;41.10;;
13040;SDS011;6587;42.728;23.288;2023-02-17T02:05:43;102.37;;;47.27;;
13040;SDS011;6587;42.728;23.288;2023-02-17T02:08:10;100.03;;;44.40;;
13040;SDS011;6587;42.728;23.288;2023-02-17T02:10:38;100.80;;;44.27;;
13040;SDS011;6587;42.728;23.288;2023-02-17T02:13:06;87.57;;;41.93;;
13040;SDS011;6587;42.728;23.288;2023-02-17T02:15:34;92.20;;;41.33;;
13040;SDS011;6587;42.728;23.288;2023-02-17T02:18:12;93.67;;;42.27;;
13040;SDS011;6587;42.728;23.288;2023-02-17T02:24:05;94.83;;;42.33;;
13040;SDS011;6587;42.728;23.288;2023-02-17T02:26:49;101.13;;;43.90;;
13040;SDS011;6587;42.728;23.288;2023-02-17T02:29:40;105.97;;;44.13;;
13040;SDS011;6587;42.728;23.288;2023-02-17T02:32:26;112.47;;;45.90;;
13040;SDS011;6587;42.728;23.288;2023-02-17T02:35:04;105.50;;;46.13;;
13040;SDS011;6587;42.728;23.288;2023-02-17T02:37:38;104.53;;;43.23;;
13040;SDS011;6587;42.728;23.288;2023-02-17T02:40:10;96.73;;;40.87;;
13040;SDS011;6587;42.728;23.288;2023-02-17T02:42:39;110.93;;;47.33;;
13040;SDS011;6587;42.728;23.288;2023-02-17T02:45:09;92.63;;;40.27;;
13040;SDS011;6587;42.728;23.288;2023-02-17T02:47:43;79.23;;;38.60;;
13040;SDS011;6587;42.728;23.288;2023-02-17T02:50:16;71.73;;;34.57;;
13040;SDS011;6587;42.728;23.288;2023-02-17T02:52:56;71.30;;;32.27;;
13040;SDS011;6587;42.728;23.288;2023-02-17T02:55:35;52.63;;;24.43;;
13040;SDS011;6587;42.728;23.288;2023-02-17T02:58:15;52.83;;;25.83;;
13040;SDS011;6587;42.728;23.288;2023-02-17T03:00:47;43.93;;;23.30;;
13040;SDS011;6587;42.728;23.288;2023-02-17T03:03:23;46.00;;;19.00;;
13040;SDS011;6587;42.728;23.288;2023-02-17T03:06:02;56.57;;;27.63;;
13040;SDS011;6587;42.728;23.288;2023-02-17T03:08:35;63.57;;;31.50;;
13040;SDS011;6587;42.728;23.288;2023-02-17T03:11:07;71.23;;;33.73;;
13040;SDS011;6587;42.728;23.288;2023-02-17T03:13:34;61.40;;;30.90;;
13040;SDS011;6587;42.728;23.288;2023-02-17T03:16:06;68.47;;;33.20;;
13040;SDS011;6587;42.728;23.288;2023-02-17T03:18:37;69.03;;;33.13;;
13040;SDS011;6587;42.728;23.288;2023-02-17T03:21:08;71.57;;;33.60;;
13040;SDS011;6587;42.728;23.288;2023-02-17T03:23:38;74.03;;;34.20;;
13040;SDS011;6587;42.728;23.288;2023-02-17T03:26:05;74.93;;;34.07;;
13040;SDS011;6587;42.728;23.288;2023-02-17T03:28:32;67.70;;;33.27;;
13040;SDS011;6587;42.728;23.288;2023-02-17T03:30:59;70.50;;;34.40;;
13040;SDS011;6587;42.728;23.288;2023-02-17T03:33:26;90.20;;;40.93;;
13040;SDS011;6587;42.728;23.288;2023-02-17T03:35:54;85.70;;;39.23;;
13040;SDS011;6587;42.728;23.288;2023-02-17T03:38:22;74.40;;;37.27;;
13040;SDS011;6587;42.728;23.288;2023-02-17T03:40:49;79.70;;;38.13;;
13040;SDS011;6587;42.728;23.288;2023-02-17T03:43:17;81.00;;;39.67;;
13040;SDS011;6587;42.728;23.288;2023-02-17T03:45:45;90.03;;;38.70;;
13040;SDS011;6587;42.728;23.288;2023-02-17T03:48:12;75.70;;;37.93;;
13040;SDS011;6587;42.728;23.288;2023-02-17T03:50:39;86.13;;;38.17;;
13040;SDS011;6587;42.728;23.288;2023-02-17T03:53:07;79.73;;;36.67;;
13040;SDS011;6587;42.728;23.288;2023-02-17T03:55:36;73.23;;;37.13;;
13040;SDS011;6587;42.728;23.288;2023-02-17T03:58:03;72.83;;;35.67;;
13040;SDS011;6587;42.728;23.288;2023-02-17T04:00:30;71.20;;;33.60;;
13040;SDS011;6587;42.728;23.288;2023-02-17T04:02:57;80.37;;;36.97;;
13040;SDS011;6587;42.728;23.288;2023-02-17T04:05:24;73.23;;;32.73;;
13040;SDS011;6587;42.728;23.288;2023-02-17T04:07:51;111.77;;;44.37;;
13040;SDS011;6587;42.728;23.288;2023-02-17T04:10:19;98.50;;;43.37;;
13040;SDS011;6587;42.728;23.288;2023-02-17T04:12:46;88.97;;;41.80;;
13040;SDS011;6587;42.728;23.288;2023-02-17T04:15:13;78.93;;;37.10;;
13040;SDS011;6587;42.728;23.288;2023-02-17T04:17:40;91.93;;;42.07;;
13040;SDS011;6587;42.728;23.288;2023-02-17T04:20:07;84.47;;;40.17;;
13040;SDS011;6587;42.728;23.288;2023-02-17T04:22:35;83.03;;;38.73;;
13040;SDS011;6587;42.728;23.288;2023-02-17T04:25:02;77.73;;;35.07;;
13040;SDS011;6587;42.728;23.288;2023-02-17T04:27:30;84.60;;;37.10;;
13040;SDS011;6587;42.728;23.288;2023-02-17T04:29:59;77.67;;;36.53;;
13040;SDS011;6587;42.728;23.288;2023-02-17T04:32:26;65.17;;;33.93;;
13040;SDS011;6587;42.728;23.288;2023-02-17T04:34:53;71.50;;;33.93;;
13040;SDS011;6587;42.728;23.288;2023-02-17T04:37:20;86.30;;;38.37;;
13040;SDS011;6587;42.728;23.288;2023-02-17T04:39:47;78.53;;;37.70;;
13040;SDS011;6587;42.728;23.288;2023-02-17T04:42:14;66.70;;;32.97;;
13040;SDS011;6587;42.728;23.288;2023-02-17T04:44:42;82.40;;;40.33;;
13040;SDS011;6587;42.728;23.288;2023-02-17T04:47:09;77.43;;;36.57;;
13040;SDS011;6587;42.728;23.288;2023-02-17T04:49:36;72.83;;;33.60;;
13040;SDS011;6587;42.728;23.288;2023-02-17T04:52:03;72.17;;;34.60;;
13040;SDS011;6587;42.728;23.288;2023-02-17T04:54:30;72.43;;;35.47;;
13040;SDS011;6587;42.728;23.288;2023-02-17T04:56:57;78.70;;;35.57;;
13040;SDS011;6587;42.728;23.288;2023-02-17T04:59:24;76.57;;;37.30;;
13040;SDS011;6587;42.728;23.288;2023-02-17T05:01:52;78.13;;;37.87;;
13040;SDS011;6587;42.728;23.288;2023-02-17T05:04:19;72.60;;;35.20;;
13040;SDS011;6587;42.728;23.288;2023-02-17T05:06:46;66.90;;;35.37;;
13040;SDS011;6587;42.728;23.288;2023-02-17T05:09:13;57.73;;;30.33;;
13040;SDS011;6587;42.728;23.288;2023-02-17T05:11:40;85.50;;;38.20;;
13040;SDS011;6587;42.728;23.288;2023-02-17T05:14:07;75.43;;;35.50;;
13040;SDS011;6587;42.728;23.288;2023-02-17T05:16:34;86.80;;;37.20;;
13040;SDS011;6587;42.728;23.288;2023-02-17T05:19:02;71.57;;;34.27;;
13040;SDS011;6587;42.728;23.288;2023-02-17T05:21:29;102.03;;;43.07;;
13040;SDS011;6587;42.728;23.288;2023-02-17T05:23:57;128.23;;;53.87;;
13040;SDS011;6587;42.728;23.288;2023-02-17T05:26:24;222.53;;;90.50;;
13040;SDS011;6587;42.728;23.288;2023-02-17T05:28:51;65.23;;;31.40;;
13040;SDS011;6587;42.728;23.288;2023-02-17T05:31:18;77.57;;;36.80;;
13040;SDS011;6587;42.728;23.288;2023-02-17T05:33:45;70.20;;;35.17;;
13040;SDS011;6587;42.728;23.288;2023-02-17T05:36:13;84.90;;;37.53;;
13040;SDS011;6587;42.728;23.288;2023-02-17T05:38:41;77.90;;;36.67;;
13040;SDS011;6587;42.728;23.288;2023-02-17T05:41:10;76.93;;;38.40;;
13040;SDS011;6587;42.728;23.288;2023-02-17T05:43:37;66.93;;;33.37;;
13040;SDS011;6587;42.728;23.288;2023-02-17T05:46:04;63.77;;;34.80;;
13040;SDS011;6587;42.728;23.288;2023-02-17T05:48:31;141.30;;;60.03;;
13040;SDS011;6587;42.728;23.288;2023-02-17T05:50:58;115.23;;;49.40;;
13040;SDS011;6587;42.728;23.288;2023-02-17T05:53:27;97.40;;;47.37;;
13040;SDS011;6587;42.728;23.288;2023-02-17T05:55:54;74.73;;;38.37;;
13040;SDS011;6587;42.728;23.288;2023-02-17T05:58:21;90.47;;;41.63;;
13040;SDS011;6587;42.728;23.288;2023-02-17T06:00:48;80.73;;;39.03;;
13040;SDS011;6587;42.728;23.288;2023-02-17T06:03:15;82.53;;;39.60;;
13040;SDS011;6587;42.728;23.288;2023-02-17T06:05:43;79.50;;;36.93;;
13040;SDS011;6587;42.728;23.288;2023-02-17T06:08:10;72.60;;;34.67;;
13040;SDS011;6587;42.728;23.288;2023-02-17T06:10:39;111.27;;;53.03;;
13040;SDS011;6587;42.728;23.288;2023-02-17T06:13:06;136.17;;;58.00;;
13040;SDS011;6587;42.728;23.288;2023-02-17T06:15:33;97.57;;;44.13;;
13040;SDS011;6587;42.728;23.288;2023-02-17T06:18:00;224.40;;;81.00;;
13040;SDS011;6587;42.728;23.288;2023-02-17T06:20:27;456.43;;;170.07;;
13040;SDS011;6587;42.728;23.288;2023-02-17T06:22:54;200.60;;;75.03;;
13040;SDS011;6587;42.728;23.288;2023-02-17T06:25:21;140.60;;;57.23;;
13040;SDS011;6587;42.728;23.288;2023-02-17T06:27:49;99.97;;;46.77;;
13040;SDS011;6587;42.728;23.288;2023-02-17T06:30:16;101.27;;;47.23;;
13040;SDS011;6587;42.728;23.288;2023-02-17T06:32:44;119.37;;;49.93;;
13040;SDS011;6587;42.728;23.288;2023-02-17T06:35:11;124.37;;;51.80;;
13040;SDS011;6587;42.728;23.288;2023-02-17T06:37:38;121.37;;;54.00;;
13040;SDS011;6587;42.728;23.288;2023-02-17T06:40:05;109.23;;;49.53;;
13040;SDS011;6587;42.728;23.288;2023-02-17T06:42:33;94.53;;;47.37;;
13040;SDS011;6587;42.728;23.288;2023-02-17T06:45:01;91.53;;;45.07;;
13040;SDS011;6587;42.728;23.288;2023-02-17T06:47:30;97.37;;;49.47;;
13040;SDS011;6587;42.728;23.288;2023-02-17T06:49:57;91.40;;;45.03;;
13040;SDS011;6587;42.728;23.288;2023-02-17T06:52:24;85.87;;;43.93;;
13040;SDS011;6587;42.728;23.288;2023-02-17T06:54:52;87.70;;;40.17;;
13040;SDS011;6587;42.728;23.288;2023-02-17T06:57:19;79.90;;;40.83;;
13040;SDS011;6587;42.728;23.288;2023-02-17T06:59:46;76.73;;;38.63;;
13040;SDS011;6587;42.728;23.288;2023-02-17T07:02:14;89.43;;;40.67;;
13040;SDS011;6587;42.728;23.288;2023-02-17T07:04:41;69.37;;;33.73;;
13040;SDS011;6587;42.728;23.288;2023-02-17T07:07:08;68.10;;;33.10;;
13040;SDS011;6587;42.728;23.288;2023-02-17T07:09:36;60.37;;;31.80;;
13040;SDS011;6587;42.728;23.288;2023-02-17T07:12:04;57.43;;;31.77;;
13040;SDS011;6587;42.728;23.288;2023-02-17T07:14:31;65.27;;;33.27;;
13040;SDS011;6587;42.728;23.288;2023-02-17T07:16:59;63.67;;;32.63;;
13040;SDS011;6587;42.728;23.288;2023-02-17T07:19:28;61.23;;;32.53;;
13040;SDS011;6587;42.728;23.288;2023-02-17T07:21:55;57.40;;;30.83;;
13040;SDS011;6587;42.728;23.288;2023-02-17T07:24:22;59.00;;;31.80;;
13040;SDS011;6587;42.728;23.288;2023-02-17T07:26:49;55.60;;;28.67;;
13040;SDS011;6587;42.728;23.288;2023-02-17T07:29:17;57.40;;;28.30;;
13040;SDS011;6587;42.728;23.288;2023-02-17T07:31:44;50.57;;;25.97;;
13040;SDS011;6587;42.728;23.288;2023-02-17T07:34:12;48.97;;;24.73;;
13040;SDS011;6587;42.728;23.288;2023-02-17T07:36:40;48.47;;;25.00;;
13040;SDS011;6587;42.728;23.288;2023-02-17T07:39:07;46.33;;;24.27;;
13040;SDS011;6587;42.728;23.288;2023-02-17T07:41:34;43.77;;;23.57;;
13040;SDS011;6587;42.728;23.288;2023-02-17T07:44:07;40.60;;;22.50;;
13040;SDS011;6587;42.728;23.288;2023-02-17T07:46:35;44.10;;;22.27;;
13040;SDS011;6587;42.728;23.288;2023-02-17T07:49:03;47.23;;;22.53;;
13040;SDS011;6587;42.728;23.288;2023-02-17T07:51:31;44.87;;;22.27;;
13040;SDS011;6587;42.728;23.288;2023-02-17T07:54:00;45.63;;;22.67;;
13040;SDS011;6587;42.728;23.288;2023-02-17T07:56:27;37.53;;;20.87;;
13040;SDS011;6587;42.728;23.288;2023-02-17T07:58:55;42.70;;;22.93;;
13040;SDS011;6587;42.728;23.288;2023-02-17T08:01:22;45.43;;;22.80;;
13040;SDS011;6587;42.728;23.288;2023-02-17T08:03:50;44.57;;;21.33;;
13040;SDS011;6587;42.728;23.288;2023-02-17T08:06:18;40.93;;;20.97;;
13040;SDS011;6587;42.728;23.288;2023-02-17T08:08:46;43.83;;;22.20;;
13040;SDS011;6587;42.728;23.288;2023-02-17T08:11:34;43.23;;;22.07;;
13040;SDS011;6587;42.728;23.288;2023-02-17T08:14:19;43.70;;;21.23;;
13040;SDS011;6587;42.728;23.288;2023-02-17T08:16:47;46.10;;;22.37;;
13040;SDS011;6587;42.728;23.288;2023-02-17T08:19:14;51.57;;;22.80;;
13040;SDS011;6587;42.728;23.288;2023-02-17T08:21:40;49.37;;;22.07;;
13040;SDS011;6587;42.728;23.288;2023-02-17T08:24:08;39.00;;;21.53;;
13040;SDS011;6587;42.728;23.288;2023-02-17T08:26:37;41.57;;;20.20;;
13040;SDS011;6587;42.728;23.288;2023-02-17T08:29:04;30.73;;;17.23;;
13040;SDS011;6587;42.728;23.288;2023-02-17T08:31:32;15.90;;;9.00;;
13040;SDS011;6587;42.728;23.288;2023-02-17T08:34:01;15.93;;;7.20;;
13040;SDS011;6587;42.728;23.288;2023-02-17T08:36:29;21.67;;;7.73;;
13040;SDS011;6587;42.728;23.288;2023-02-17T08:38:58;14.10;;;7.63;;
13040;SDS011;6587;42.728;23.288;2023-02-17T08:41:26;11.63;;;6.80;;
13040;SDS011;6587;42.728;23.288;2023-02-17T08:43:56;11.30;;;7.30;;
13040;SDS011;6587;42.728;23.288;2023-02-17T08:46:24;12.40;;;7.20;;
13040;SDS011;6587;42.728;23.288;2023-02-17T08:48:52;16.27;;;8.00;;
13040;SDS011;6587;42.728;23.288;2023-02-17T08:51:20;12.23;;;6.90;;
13040;SDS011;6587;42.728;23.288;2023-02-17T08:53:50;15.80;;;7.63;;
13040;SDS011;6587;42.728;23.288;2023-02-17T08:56:18;13.20;;;7.13;;
13040;SDS011;6587;42.728;23.288;2023-02-17T08:58:46;14.03;;;7.60;;
13040;SDS011;6587;42.728;23.288;2023-02-17T09:01:14;11.60;;;6.30;;
13040;SDS011;6587;42.728;23.288;2023-02-17T09:03:43;13.87;;;6.90;;
13040;SDS011;6587;42.728;23.288;2023-02-17T09:06:10;10.77;;;6.87;;
13040;SDS011;6587;42.728;23.288;2023-02-17T09:08:37;14.53;;;7.00;;
13040;SDS011;6587;42.728;23.288;2023-02-17T09:11:05;13.07;;;7.00;;
13040;SDS011;6587;42.728;23.288;2023-02-17T09:13:32;13.13;;;6.30;;
13040;SDS011;6587;42.728;23.288;2023-02-17T09:15:59;11.27;;;6.93;;
13040;SDS011;6587;42.728;23.288;2023-02-17T09:18:27;10.50;;;6.27;;
13040;SDS011;6587;42.728;23.288;2023-02-17T09:20:54;11.90;;;7.07;;
13040;SDS011;6587;42.728;23.288;2023-02-17T09:23:22;13.10;;;7.03;;
13040;SDS011;6587;42.728;23.288;2023-02-17T09:25:49;11.13;;;7.20;;
13040;SDS011;6587;42.728;23.288;2023-02-17T09:28:16;14.13;;;7.47;;
13040;SDS011;6587;42.728;23.288;2023-02-17T09:30:43;15.13;;;7.40;;
13040;SDS011;6587;42.728;23.288;2023-02-17T09:33:11;15.47;;;7.60;;
13040;SDS011;6587;42.728;23.288;2023-02-17T09:35:39;11.93;;;6.63;;
13040;SDS011;6587;42.728;23.288;2023-02-17T09:38:06;11.03;;;7.33;;
13040;SDS011;6587;42.728;23.288;2023-02-17T09:40:37;12.27;;;7.17;;
13040;SDS011;6587;42.728;23.288;2023-02-17T09:43:09;12.60;;;6.47;;
13040;SDS011;6587;42.728;23.288;2023-02-17T09:45:39;11.90;;;6.70;;
13040;SDS011;6587;42.728;23.288;2023-02-17T09:48:10;10.10;;;6.60;;
13040;SDS011;6587;42.728;23.288;2023-02-17T09:50:44;9.90;;;6.90;;
13040;SDS011;6587;42.728;23.288;2023-02-17T09:53:20;12.13;;;7.03;;
13040;SDS011;6587;42.728;23.288;2023-02-17T09:55:51;10.87;;;7.07;;
13040;SDS011;6587;42.728;23.288;2023-02-17T09:58:21;11.70;;;6.70;;
13040;SDS011;6587;42.728;23.288;2023-02-17T10:00:52;11.33;;;6.97;;
13040;SDS011;6587;42.728;23.288;2023-02-17T10:03:23;12.77;;;7.23;;
13040;SDS011;6587;42.728;23.288;2023-02-17T10:05:58;11.10;;;6.93;;
13040;SDS011;6587;42.728;23.288;2023-02-17T10:08:35;16.77;;;7.97;;
13040;SDS011;6587;42.728;23.288;2023-02-17T10:11:10;10.57;;;6.83;;
13040;SDS011;6587;42.728;23.288;2023-02-17T10:13:44;11.60;;;6.80;;
13040;SDS011;6587;42.728;23.288;2023-02-17T10:16:14;16.40;;;7.43;;
13040;SDS011;6587;42.728;23.288;2023-02-17T10:18:50;11.53;;;7.03;;
13040;SDS011;6587;42.728;23.288;2023-02-17T10:21:26;11.20;;;6.87;;
13040;SDS011;6587;42.728;23.288;2023-02-17T10:23:56;9.33;;;5.50;;
13040;SDS011;6587;42.728;23.288;2023-02-17T10:26:25;13.33;;;6.50;;
13040;SDS011;6587;42.728;23.288;2023-02-17T10:29:11;11.70;;;6.93;;
13040;SDS011;6587;42.728;23.288;2023-02-17T10:31:44;8.60;;;5.80;;
13040;SDS011;6587;42.728;23.288;2023-02-17T10:34:15;11.00;;;6.57;;
13040;SDS011;6587;42.728;23.288;2023-02-17T10:36:54;10.23;;;6.07;;
13040;SDS011;6587;42.728;23.288;2023-02-17T10:39:29;12.87;;;6.37;;
13040;SDS011;6587;42.728;23.288;2023-02-17T10:42:05;10.00;;;6.03;;
13040;SDS011;6587;42.728;23.288;2023-02-17T10:44:40;11.30;;;6.33;;
13040;SDS011;6587;42.728;23.288;2023-02-17T10:47:07;11.77;;;6.43;;
13040;SDS011;6587;42.728;23.288;2023-02-17T10:49:37;8.50;;;5.40;;
13040;SDS011;6587;42.728;23.288;2023-02-17T10:52:10;9.50;;;5.70;;
13040;SDS011;6587;42.728;23.288;2023-02-17T10:54:42;12.50;;;5.80;;
13040;SDS011;6587;42.728;23.288;2023-02-17T10:57:12;10.93;;;5.97;;
13040;SDS011;6587;42.728;23.288;2023-02-17T10:59:43;7.77;;;4.83;;
13040;SDS011;6587;42.728;23.288;2023-02-17T11:02:14;9.60;;;5.00;;
13040;SDS011;6587;42.728;23.288;2023-02-17T11:04:45;7.73;;;5.10;;
13040;SDS011;6587;42.728;23.288;2023-02-17T11:07:15;11.00;;;5.57;;
13040;SDS011;6587;42.728;23.288;2023-02-17T11:09:45;6.07;;;4.27;;
13040;SDS011;6587;42.728;23.288;2023-02-17T11:12:15;8.40;;;5.07;;
13040;SDS011;6587;42.728;23.288;2023-02-17T11:14:47;10.87;;;4.93;;
13040;SDS011;6587;42.728;23.288;2023-02-17T11:17:17;8.30;;;5.30;;
13040;SDS011;6587;42.728;23.288;2023-02-17T11:19:53;8.50;;;4.83;;
13040;SDS011;6587;42.728;23.288;2023-02-17T11:22:29;8.03;;;4.93;;
13040;SDS011;6587;42.728;23.288;2023-02-17T11:24:58;8.63;;;5.80;;
13040;SDS011;6587;42.728;23.288;2023-02-17T11:27:27;11.67;;;6.10;;
13040;SDS011;6587;42.728;23.288;2023-02-17T11:30:03;9.73;;;5.80;;
13040;SDS011;6587;42.728;23.288;2023-02-17T11:32:32;8.83;;;5.27;;
13040;SDS011;6587;42.728;23.288;2023-02-17T11:35:00;11.93;;;5.50;;
13040;SDS011;6587;42.728;23.288;2023-02-17T11:37:31;8.87;;;5.50;;
13040;SDS011;6587;42.728;23.288;2023-02-17T11:40:15;6.87;;;5.17;;
13040;SDS011;6587;42.728;23.288;2023-02-17T11:42:54;7.77;;;5.53;;
13040;SDS011;6587;42.728;23.288;2023-02-17T11:45:22;8.53;;;5.67;;
13040;SDS011;6587;42.728;23.288;2023-02-17T11:47:53;11.37;;;6.30;;
13040;SDS011;6587;42.728;23.288;2023-02-17T11:50:33;6.63;;;4.57;;
13040;SDS011;6587;42.728;23.288;2023-02-17T11:53:13;9.20;;;4.90;;
13040;SDS011;6587;42.728;23.288;2023-02-17T11:55:52;9.10;;;5.27;;
13040;SDS011;6587;42.728;23.288;2023-02-17T11:58:34;8.70;;;5.90;;
13040;SDS011;6587;42.728;23.288;2023-02-17T12:01:15;11.63;;;5.40;;
13040;SDS011;6587;42.728;23.288;2023-02-17T12:04:10;10.00;;;5.50;;
13040;SDS011;6587;42.728;23.288;2023-02-17T12:06:51;8.87;;;6.67;;
13040;SDS011;6587;42.728;23.288;2023-02-17T12:09:34;7.77;;;5.40;;
13040;SDS011;6587;42.728;23.288;2023-02-17T12:12:15;7.50;;;5.13;;
13040;SDS011;6587;42.728;23.288;2023-02-17T12:14:59;8.13;;;5.30;;
13040;SDS011;6587;42.728;23.288;2023-02-17T12:17:36;8.83;;;4.77;;
13040;SDS011;6587;42.728;23.288;2023-02-17T12:20:27;7.30;;;4.40;;
13040;SDS011;6587;42.728;23.288;2023-02-17T12:23:05;10.03;;;5.60;;
13040;SDS011;6587;42.728;23.288;2023-02-17T12:25:45;9.10;;;4.97;;
13040;SDS011;6587;42.728;23.288;2023-02-17T12:28:29;6.93;;;4.60;;
13040;SDS011;6587;42.728;23.288;2023-02-17T12:31:09;7.93;;;4.77;;
13040;SDS011;6587;42.728;23.288;2023-02-17T12:33:48;10.40;;;4.90;;
13040;SDS011;6587;42.728;23.288;2023-02-17T12:36:24;5.87;;;4.53;;
13040;SDS011;6587;42.728;23.288;2023-02-17T12:38:56;11.03;;;4.97;;
13040;SDS011;6587;42.728;23.288;2023-02-17T12:41:29;8.47;;;4.80;;
13040;SDS011;6587;42.728;23.288;2023-02-17T12:44:01;7.93;;;5.27;;
13040;SDS011;6587;42.728;23.288;2023-02-17T12:46:34;6.90;;;4.60;;
13040;SDS011;6587;42.728;23.288;2023-02-17T12:49:05;7.50;;;4.90;;
13040;SDS011;6587;42.728;23.288;2023-02-17T12:51:38;8.47;;;5.17;;
13040;SDS011;6587;42.728;23.288;2023-02-17T12:54:11;7.70;;;5.30;;
13040;SDS011;6587;42.728;23.288;2023-02-17T12:56:47;7.67;;;5.90;;
13040;SDS011;6587;42.728;23.288;2023-02-17T12:59:21;7.93;;;4.77;;
13040;SDS011;6587;42.728;23.288;2023-02-17T13:01:57;11.83;;;5.47;;
13040;SDS011;6587;42.728;23.288;2023-02-17T13:04:27;6.83;;;4.83;;
13040;SDS011;6587;42.728;23.288;2023-02-17T13:07:05;9.57;;;5.70;;
13040;SDS011;6587;42.728;23.288;2023-02-17T13:09:41;9.57;;;5.30;;
13040;SDS011;6587;42.728;23.288;2023-02-17T13:12:30;9.13;;;5.00;;
13040;SDS011;6587;42.728;23.288;2023-02-17T13:15:00;9.97;;;5.30;;
13040;SDS011;6587;42.728;23.288;2023-02-17T13:17:29;9.37;;;5.60;;
13040;SDS011;6587;42.728;23.288;2023-02-17T13:20:11;9.47;;;5.30;;
13040;SDS011;6587;42.728;23.288;2023-02-17T13:23:01;7.57;;;5.37;;
13040;SDS011;6587;42.728;23.288;2023-02-17T13:25:33;9.23;;;5.20;;
13040;SDS011;6587;42.728;23.288;2023-02-17T13:28:14;9.87;;;6.17;;
13040;SDS011;6587;42.728;23.288;2023-02-17T13:30:43;11.80;;;5.73;;
13040;SDS011;6587;42.728;23.288;2023-02-17T13:33:28;6.50;;;5.13;;
13040;SDS011;6587;42.728;23.288;2023-02-17T13:35:56;9.00;;;5.17;;
13040;SDS011;6587;42.728;23.288;2023-02-17T13:38:27;5.57;;;4.67;;
13040;SDS011;6587;42.728;23.288;2023-02-17T13:40:56;8.80;;;4.83;;
13040;SDS011;6587;42.728;23.288;2023-02-17T13:43:27;5.70;;;4.50;;
13040;SDS011;6587;42.728;23.288;2023-02-17T13:45:56;7.07;;;5.17;;
13040;SDS011;6587;42.728;23.288;2023-02-17T13:48:25;8.10;;;5.17;;
13040;SDS011;6587;42.728;23.288;2023-02-17T13:50:54;9.20;;;5.70;;
13040;SDS011;6587;42.728;23.288;2023-02-17T13:53:23;8.10;;;5.20;;
13040;SDS011;6587;42.728;23.288;2023-02-17T13:55:53;9.37;;;5.63;;
13040;SDS011;6587;42.728;23.288;2023-02-17T13:58:22;7.37;;;5.47;;
13040;SDS011;6587;42.728;23.288;2023-02-17T14:00:54;8.83;;;6.17;;
13040;SDS011;6587;42.728;23.288;2023-02-17T14:03:23;11.33;;;5.93;;
13040;SDS011;6587;42.728;23.288;2023-02-17T14:05:51;12.47;;;6.10;;
13040;SDS011;6587;42.728;23.288;2023-02-17T14:08:22;9.73;;;6.40;;
13040;SDS011;6587;42.728;23.288;2023-02-17T14:11:02;11.53;;;6.67;;
13040;SDS011;6587;42.728;23.288;2023-02-17T14:13:33;14.00;;;7.23;;
13040;SDS011;6587;42.728;23.288;2023-02-17T14:16:03;14.00;;;6.87;;
13040;SDS011;6587;42.728;23.288;2023-02-17T14:18:33;8.33;;;6.40;;
13040;SDS011;6587;42.728;23.288;2023-02-17T14:21:03;8.67;;;6.17;;
13040;SDS011;6587;42.728;23.288;2023-02-17T14:23:40;12.60;;;7.00;;
13040;SDS011;6587;42.728;23.288;2023-02-17T14:26:09;11.70;;;7.03;;
13040;SDS011;6587;42.728;23.288;2023-02-17T14:28:37;10.93;;;6.93;;
13040;SDS011;6587;42.728;23.288;2023-02-17T14:31:09;10.13;;;6.53;;
13040;SDS011;6587;42.728;23.288;2023-02-17T14:33:37;9.80;;;6.43;;
13040;SDS011;6587;42.728;23.288;2023-02-17T14:36:04;11.33;;;7.00;;
13040;SDS011;6587;42.728;23.288;2023-02-17T14:38:36;10.10;;;6.80;;
13040;SDS011;6587;42.728;23.288;2023-02-17T14:41:06;10.13;;;6.67;;
13040;SDS011;6587;42.728;23.288;2023-02-17T14:43:34;10.23;;;7.13;;
13040;SDS011;6587;42.728;23.288;2023-02-17T14:46:01;11.40;;;6.53;;
13040;SDS011;6587;42.728;23.288;2023-02-17T14:48:30;10.23;;;7.00;;
13040;SDS011;6587;42.728;23.288;2023-02-17T14:50:57;10.90;;;6.90;;